createdAt,value
2022-11-27T00:06:06.189Z,30.10
2022-11-27T00:14:27.743Z,43.10
2022-11-27T00:22:49.272Z,27.90
2022-11-27T00:31:26.577Z,30.80
2022-11-27T00:39:48.232Z,24.30
2022-11-27T00:48:10.161Z,24.20
2022-11-27T00:56:36.056Z,25.70
2022-11-27T01:04:57.750Z,32.80
2022-11-27T01:13:19.842Z,22.50
2022-11-27T01:21:42.023Z,26.10
2022-11-27T01:30:04.054Z,27.20
2022-11-27T01:38:26.636Z,28.70
2022-11-27T01:46:54.790Z,19.30
2022-11-27T01:55:32.669Z,29.20
2022-11-27T02:03:58.383Z,31.40
2022-11-27T02:12:58.553Z,20.40
2022-11-27T02:21:29.224Z,19.80
2022-11-27T02:29:56.288Z,26.70
2022-11-27T02:38:27.516Z,30.00
2022-11-27T02:46:49.613Z,32.30
2022-11-27T02:55:15.958Z,42.60
2022-11-27T03:03:43.079Z,39.80
2022-11-27T03:12:09.566Z,28.30
2022-11-27T03:20:39.266Z,22.50
2022-11-27T03:29:04.338Z,22.40
2022-11-27T03:37:26.980Z,22.10
2022-11-27T03:45:59.217Z,28.00
2022-11-27T03:55:05.188Z,29.20
2022-11-27T04:03:29.161Z,23.70
2022-11-27T04:11:51.160Z,28.20
2022-11-27T04:20:13.857Z,26.90
2022-11-27T04:28:35.629Z,40.50
2022-11-27T04:36:57.362Z,40.70
2022-11-27T04:45:21.794Z,52.90
2022-11-27T04:53:43.452Z,47.90
2022-11-27T05:02:06.637Z,54.90
2022-11-27T05:10:29.024Z,58.60
2022-11-27T05:18:51.984Z,61.10
2022-11-27T05:27:14.263Z,65.00
2022-11-27T05:35:36.509Z,63.50
2022-11-27T05:44:00.102Z,55.60
2022-11-27T05:52:21.673Z,72.40
2022-11-27T06:00:43.111Z,59.10
2022-11-27T06:09:09.324Z,57.20
2022-11-27T06:17:33.843Z,64.00
2022-11-27T06:25:55.449Z,70.60
2022-11-27T06:34:17.000Z,63.20
2022-11-27T06:42:38.435Z,77.70
2022-11-27T06:51:01.847Z,69.90
2022-11-27T06:59:23.726Z,62.30
2022-11-27T07:07:45.305Z,67.80
2022-11-27T07:16:10.030Z,65.60
2022-11-27T07:24:31.632Z,68.70
2022-11-27T07:32:53.238Z,76.40
2022-11-27T07:41:15.379Z,67.20
2022-11-27T07:49:36.834Z,77.00
2022-11-27T07:57:58.388Z,75.80
2022-11-27T08:06:22.944Z,74.10
2022-11-27T08:14:44.499Z,50.00
2022-11-27T08:23:07.489Z,78.60
2022-11-27T08:31:30.005Z,81.40
2022-11-27T08:39:51.531Z,79.00
2022-11-27T08:48:13.090Z,77.80
2022-11-27T08:56:35.530Z,79.30
2022-11-27T09:04:57.085Z,102.80
2022-11-27T09:13:18.609Z,93.40
2022-11-27T09:21:40.195Z,75.50
2022-11-27T09:30:01.838Z,93.30
2022-11-27T09:38:24.072Z,97.10
2022-11-27T09:46:45.734Z,97.70
2022-11-27T09:55:37.111Z,94.30
2022-11-27T10:04:01.715Z,108.40
2022-11-27T10:12:43.611Z,136.00
2022-11-27T10:21:23.543Z,105.00
2022-11-27T10:29:52.860Z,124.10
2022-11-27T10:38:21.285Z,188.50
2022-11-27T10:46:42.903Z,389.40
2022-11-27T10:55:16.423Z,248.10
2022-11-27T11:03:38.522Z,136.10
2022-11-27T11:12:20.493Z,127.30
2022-11-27T11:29:23.203Z,120.20
2022-11-27T11:37:45.789Z,118.80
2022-11-27T11:46:21.891Z,130.20
2022-11-27T11:54:57.825Z,118.80
2022-11-27T12:03:48.571Z,115.60
2022-11-27T12:12:18.591Z,104.50
2022-11-27T12:21:12.371Z,105.10
2022-11-27T12:29:43.269Z,137.60
2022-11-27T12:38:12.096Z,125.60
2022-11-27T12:46:42.628Z,104.10
2022-11-27T12:55:22.516Z,102.30
2022-11-27T13:03:58.988Z,97.20
2022-11-27T13:12:28.004Z,131.70
2022-11-27T13:20:52.712Z,184.30
2022-11-27T13:29:29.716Z,189.30
2022-11-27T13:37:58.174Z,152.00
2022-11-27T13:46:24.546Z,114.10
2022-11-27T13:54:55.152Z,231.70
2022-11-27T14:03:23.163Z,111.60
2022-11-27T14:11:47.492Z,138.20
2022-11-27T14:20:09.411Z,202.80
2022-11-27T14:28:35.559Z,114.90
2022-11-27T14:36:58.639Z,136.60
2022-11-27T14:45:22.171Z,467.40
2022-11-27T14:53:50.267Z,374.20
2022-11-27T15:02:12.121Z,413.50
2022-11-27T15:10:40.966Z,412.20
2022-11-27T15:19:04.578Z,183.50
2022-11-27T15:27:26.239Z,217.70
2022-11-27T15:35:51.287Z,385.60
2022-11-27T15:44:15.391Z,255.50
2022-11-27T15:52:36.919Z,108.30
2022-11-27T16:00:58.496Z,137.40
2022-11-27T16:09:20.151Z,243.50
2022-11-27T16:17:41.613Z,159.10
2022-11-27T16:26:03.993Z,145.00
2022-11-27T16:34:25.589Z,142.90
2022-11-27T16:42:47.385Z,112.60
2022-11-27T16:51:18.289Z,112.60
2022-11-27T16:59:40.462Z,134.00
2022-11-27T17:08:02.960Z,115.00
2022-11-27T17:16:25.441Z,117.10
2022-11-27T17:24:47.488Z,117.60
2022-11-27T17:33:10.014Z,365.00
2022-11-27T17:41:31.870Z,284.60
2022-11-27T17:49:53.793Z,215.00
2022-11-27T17:58:15.663Z,135.50
2022-11-27T18:06:37.289Z,181.80
2022-11-27T18:15:01.208Z,119.20
2022-11-27T18:23:23.426Z,109.10
2022-11-27T18:31:46.238Z,187.40
2022-11-27T18:40:11.234Z,165.50
2022-11-27T18:48:33.260Z,104.30
2022-11-27T18:56:54.883Z,137.90
2022-11-27T19:05:17.336Z,129.70
2022-11-27T19:13:40.024Z,115.40
2022-11-27T19:22:02.387Z,197.00
2022-11-27T19:30:23.955Z,92.50
2022-11-27T19:38:45.621Z,87.00
2022-11-27T19:47:09.028Z,81.70
2022-11-27T19:55:30.995Z,80.60
2022-11-27T20:03:52.666Z,101.70
2022-11-27T20:12:14.323Z,152.50
2022-11-27T20:20:35.966Z,121.00
2022-11-27T20:28:58.222Z,182.80
2022-11-27T20:37:19.765Z,137.60
2022-11-27T20:45:42.323Z,278.20
2022-11-27T20:54:04.429Z,95.80
2022-11-27T21:02:26.351Z,87.30
2022-11-27T21:10:49.998Z,92.90
2022-11-27T21:19:21.108Z,96.40
2022-11-27T21:27:43.133Z,100.00
2022-11-27T21:36:05.354Z,112.90
2022-11-27T21:44:27.264Z,96.10
2022-11-27T21:52:48.736Z,92.40
2022-11-27T22:01:13.575Z,99.20
2022-11-27T22:09:35.590Z,73.50
2022-11-27T22:17:58.644Z,77.60
2022-11-27T22:26:23.179Z,98.90
2022-11-27T22:34:44.806Z,89.10
2022-11-27T22:43:06.844Z,89.60
2022-11-27T22:51:30.293Z,77.10
2022-11-27T22:59:52.283Z,86.10
2022-11-27T23:08:13.868Z,77.20
2022-11-27T23:16:36.063Z,76.40
2022-11-27T23:24:58.761Z,82.40
2022-11-27T23:33:21.553Z,81.60
2022-11-27T23:41:43.177Z,69.20
2022-11-27T23:50:06.685Z,72.10
2022-11-27T23:58:28.192Z,70.40
